sensor_id;sensor_type;location;lat;lon;timestamp;temperature;humidity
33149;DHT22;19506;51.040;3.856;2022-07-10T00:00:35;21.00;99.90
33149;DHT22;19506;51.040;3.856;2022-07-10T00:03:02;21.00;99.90
33149;DHT22;19506;51.040;3.856;2022-07-10T00:05:28;21.00;99.90
33149;DHT22;19506;51.040;3.856;2022-07-10T00:07:53;21.10;99.90
33149;DHT22;19506;51.040;3.856;2022-07-10T00:10:20;21.00;99.90
33149;DHT22;19506;51.040;3.856;2022-07-10T00:12:47;21.00;99.90
33149;DHT22;19506;51.040;3.856;2022-07-10T00:15:14;21.00;99.90
33149;DHT22;19506;51.040;3.856;2022-07-10T00:17:41;21.00;99.90
33149;DHT22;19506;51.040;3.856;2022-07-10T00:20:08;21.00;99.90
33149;DHT22;19506;51.040;3.856;2022-07-10T00:22:34;21.00;99.90
33149;DHT22;19506;51.040;3.856;2022-07-10T00:25:11;21.00;99.90
33149;DHT22;19506;51.040;3.856;2022-07-10T00:27:37;21.00;99.90
33149;DHT22;19506;51.040;3.856;2022-07-10T00:30:03;21.00;99.90
33149;DHT22;19506;51.040;3.856;2022-07-10T00:32:29;21.00;99.90
33149;DHT22;19506;51.040;3.856;2022-07-10T00:34:54;21.00;99.90
33149;DHT22;19506;51.040;3.856;2022-07-10T00:37:20;20.90;99.90
33149;DHT22;19506;51.040;3.856;2022-07-10T00:39:47;20.90;99.90
33149;DHT22;19506;51.040;3.856;2022-07-10T00:42:14;20.90;99.90
33149;DHT22;19506;51.040;3.856;2022-07-10T00:44:41;20.90;99.90
33149;DHT22;19506;51.040;3.856;2022-07-10T00:47:08;20.90;99.90
33149;DHT22;19506;51.040;3.856;2022-07-10T00:49:36;20.90;99.90
33149;DHT22;19506;51.040;3.856;2022-07-10T00:52:04;20.90;99.90
33149;DHT22;19506;51.040;3.856;2022-07-10T00:54:32;20.90;99.90
33149;DHT22;19506;51.040;3.856;2022-07-10T00:56:59;20.90;99.90
33149;DHT22;19506;51.040;3.856;2022-07-10T00:59:26;20.90;99.90
33149;DHT22;19506;51.040;3.856;2022-07-10T01:01:53;20.90;99.90
33149;DHT22;19506;51.040;3.856;2022-07-10T01:04:19;20.90;99.90
33149;DHT22;19506;51.040;3.856;2022-07-10T01:06:45;20.90;99.90
33149;DHT22;19506;51.040;3.856;2022-07-10T01:09:11;20.80;99.90
33149;DHT22;19506;51.040;3.856;2022-07-10T01:11:37;20.90;99.90
33149;DHT22;19506;51.040;3.856;2022-07-10T01:14:03;20.80;99.90
33149;DHT22;19506;51.040;3.856;2022-07-10T01:16:30;20.80;99.90
33149;DHT22;19506;51.040;3.856;2022-07-10T01:18:57;20.80;99.90
33149;DHT22;19506;51.040;3.856;2022-07-10T01:23:51;20.80;99.90
33149;DHT22;19506;51.040;3.856;2022-07-10T01:26:18;20.80;99.90
33149;DHT22;19506;51.040;3.856;2022-07-10T01:28:43;20.80;99.90
33149;DHT22;19506;51.040;3.856;2022-07-10T01:31:09;20.80;99.90
33149;DHT22;19506;51.040;3.856;2022-07-10T01:33:35;20.80;99.90
33149;DHT22;19506;51.040;3.856;2022-07-10T01:36:00;20.80;99.90
33149;DHT22;19506;51.040;3.856;2022-07-10T01:38:26;20.80;99.90
33149;DHT22;19506;51.040;3.856;2022-07-10T01:40:52;20.80;99.90
33149;DHT22;19506;51.040;3.856;2022-07-10T01:43:17;20.80;99.90
33149;DHT22;19506;51.040;3.856;2022-07-10T01:45:43;20.70;99.90
33149;DHT22;19506;51.040;3.856;2022-07-10T01:48:09;20.70;99.90
33149;DHT22;19506;51.040;3.856;2022-07-10T01:50:35;20.70;99.90
33149;DHT22;19506;51.040;3.856;2022-07-10T01:53:01;20.70;99.90
33149;DHT22;19506;51.040;3.856;2022-07-10T01:55:26;20.70;99.90
33149;DHT22;19506;51.040;3.856;2022-07-10T01:57:52;20.70;99.90
33149;DHT22;19506;51.040;3.856;2022-07-10T02:00:18;20.70;99.90
33149;DHT22;19506;51.040;3.856;2022-07-10T02:02:44;20.70;99.90
33149;DHT22;19506;51.040;3.856;2022-07-10T02:05:30;20.70;99.90
33149;DHT22;19506;51.040;3.856;2022-07-10T02:07:55;20.70;99.90
33149;DHT22;19506;51.040;3.856;2022-07-10T02:10:21;20.70;99.90
33149;DHT22;19506;51.040;3.856;2022-07-10T02:12:46;20.70;99.90
33149;DHT22;19506;51.040;3.856;2022-07-10T02:15:12;20.70;99.90
33149;DHT22;19506;51.040;3.856;2022-07-10T02:17:38;20.70;99.90
33149;DHT22;19506;51.040;3.856;2022-07-10T02:20:04;20.70;99.90
33149;DHT22;19506;51.040;3.856;2022-07-10T02:22:29;20.70;99.90
33149;DHT22;19506;51.040;3.856;2022-07-10T02:24:55;20.70;99.90
33149;DHT22;19506;51.040;3.856;2022-07-10T02:27:21;20.70;99.90
33149;DHT22;19506;51.040;3.856;2022-07-10T02:29:47;20.70;99.90
33149;DHT22;19506;51.040;3.856;2022-07-10T02:32:13;20.70;99.90
33149;DHT22;19506;51.040;3.856;2022-07-10T02:34:39;20.60;99.90
33149;DHT22;19506;51.040;3.856;2022-07-10T02:37:04;20.70;99.90
33149;DHT22;19506;51.040;3.856;2022-07-10T02:39:30;20.60;99.90
33149;DHT22;19506;51.040;3.856;2022-07-10T02:41:55;20.60;99.90
33149;DHT22;19506;51.040;3.856;2022-07-10T02:44:21;20.60;99.90
33149;DHT22;19506;51.040;3.856;2022-07-10T02:46:47;20.60;99.90
33149;DHT22;19506;51.040;3.856;2022-07-10T02:49:12;20.60;99.90
33149;DHT22;19506;51.040;3.856;2022-07-10T02:51:38;20.60;99.90
33149;DHT22;19506;51.040;3.856;2022-07-10T02:54:04;20.60;99.90
33149;DHT22;19506;51.040;3.856;2022-07-10T02:56:29;20.60;99.90
33149;DHT22;19506;51.040;3.856;2022-07-10T02:58:55;20.60;99.90
33149;DHT22;19506;51.040;3.856;2022-07-10T03:01:20;20.60;99.90
33149;DHT22;19506;51.040;3.856;2022-07-10T03:03:46;20.60;99.90
33149;DHT22;19506;51.040;3.856;2022-07-10T03:06:12;20.50;99.90
33149;DHT22;19506;51.040;3.856;2022-07-10T03:08:37;20.50;99.90
33149;DHT22;19506;51.040;3.856;2022-07-10T03:11:03;20.50;99.90
33149;DHT22;19506;51.040;3.856;2022-07-10T03:13:28;20.50;99.90
33149;DHT22;19506;51.040;3.856;2022-07-10T03:15:54;20.50;99.90
33149;DHT22;19506;51.040;3.856;2022-07-10T03:18:20;20.50;99.90
33149;DHT22;19506;51.040;3.856;2022-07-10T03:20:46;20.50;99.90
33149;DHT22;19506;51.040;3.856;2022-07-10T03:23:11;20.50;99.90
33149;DHT22;19506;51.040;3.856;2022-07-10T03:25:37;20.60;99.90
33149;DHT22;19506;51.040;3.856;2022-07-10T03:28:03;20.60;99.90
33149;DHT22;19506;51.040;3.856;2022-07-10T03:30:28;20.70;99.90
33149;DHT22;19506;51.040;3.856;2022-07-10T03:32:54;20.80;99.90
33149;DHT22;19506;51.040;3.856;2022-07-10T03:35:19;20.80;99.90
33149;DHT22;19506;51.040;3.856;2022-07-10T03:37:45;20.80;99.90
33149;DHT22;19506;51.040;3.856;2022-07-10T03:40:11;20.90;99.90
33149;DHT22;19506;51.040;3.856;2022-07-10T03:42:37;20.90;99.90
33149;DHT22;19506;51.040;3.856;2022-07-10T03:45:03;20.90;99.90
33149;DHT22;19506;51.040;3.856;2022-07-10T03:47:28;21.00;99.90
33149;DHT22;19506;51.040;3.856;2022-07-10T03:49:55;21.00;99.90
33149;DHT22;19506;51.040;3.856;2022-07-10T03:52:20;21.00;99.90
33149;DHT22;19506;51.040;3.856;2022-07-10T03:54:46;21.00;99.90
33149;DHT22;19506;51.040;3.856;2022-07-10T03:57:12;21.10;99.90
33149;DHT22;19506;51.040;3.856;2022-07-10T03:59:56;21.10;99.90
33149;DHT22;19506;51.040;3.856;2022-07-10T04:02:21;21.10;99.90
33149;DHT22;19506;51.040;3.856;2022-07-10T04:04:47;21.10;99.90
33149;DHT22;19506;51.040;3.856;2022-07-10T04:07:13;21.20;99.90
33149;DHT22;19506;51.040;3.856;2022-07-10T04:09:38;21.20;99.90
33149;DHT22;19506;51.040;3.856;2022-07-10T04:12:04;21.20;99.90
33149;DHT22;19506;51.040;3.856;2022-07-10T04:14:30;21.20;99.90
33149;DHT22;19506;51.040;3.856;2022-07-10T04:16:56;21.20;99.90
33149;DHT22;19506;51.040;3.856;2022-07-10T04:19:21;21.30;99.90
33149;DHT22;19506;51.040;3.856;2022-07-10T04:21:47;21.30;99.90
33149;DHT22;19506;51.040;3.856;2022-07-10T04:24:13;21.30;99.90
33149;DHT22;19506;51.040;3.856;2022-07-10T04:26:38;21.30;99.90
33149;DHT22;19506;51.040;3.856;2022-07-10T04:29:04;21.30;99.90
33149;DHT22;19506;51.040;3.856;2022-07-10T04:31:30;21.30;99.90
33149;DHT22;19506;51.040;3.856;2022-07-10T04:33:55;21.30;99.90
33149;DHT22;19506;51.040;3.856;2022-07-10T04:36:23;21.30;99.90
33149;DHT22;19506;51.040;3.856;2022-07-10T04:38:48;21.40;99.90
33149;DHT22;19506;51.040;3.856;2022-07-10T04:41:14;21.40;99.90
33149;DHT22;19506;51.040;3.856;2022-07-10T04:43:40;21.40;99.90
33149;DHT22;19506;51.040;3.856;2022-07-10T04:46:05;21.40;99.90
33149;DHT22;19506;51.040;3.856;2022-07-10T04:48:32;21.40;99.90
33149;DHT22;19506;51.040;3.856;2022-07-10T04:50:58;21.40;99.90
33149;DHT22;19506;51.040;3.856;2022-07-10T04:53:23;21.40;99.90
33149;DHT22;19506;51.040;3.856;2022-07-10T04:55:49;21.40;99.90
33149;DHT22;19506;51.040;3.856;2022-07-10T04:58:15;21.40;99.90
33149;DHT22;19506;51.040;3.856;2022-07-10T05:00:41;21.40;99.90
33149;DHT22;19506;51.040;3.856;2022-07-10T05:03:06;21.40;99.90
33149;DHT22;19506;51.040;3.856;2022-07-10T05:05:32;21.50;99.90
33149;DHT22;19506;51.040;3.856;2022-07-10T05:07:58;21.40;99.90
33149;DHT22;19506;51.040;3.856;2022-07-10T05:10:24;21.40;99.90
33149;DHT22;19506;51.040;3.856;2022-07-10T05:12:50;21.40;99.90
33149;DHT22;19506;51.040;3.856;2022-07-10T05:15:15;21.50;99.90
33149;DHT22;19506;51.040;3.856;2022-07-10T05:17:41;21.50;99.90
33149;DHT22;19506;51.040;3.856;2022-07-10T05:20:07;21.50;99.90
33149;DHT22;19506;51.040;3.856;2022-07-10T05:22:33;21.50;99.90
33149;DHT22;19506;51.040;3.856;2022-07-10T05:24:58;21.50;99.90
33149;DHT22;19506;51.040;3.856;2022-07-10T05:27:24;21.50;99.90
33149;DHT22;19506;51.040;3.856;2022-07-10T05:29:50;21.50;99.90
33149;DHT22;19506;51.040;3.856;2022-07-10T05:32:16;21.50;99.90
33149;DHT22;19506;51.040;3.856;2022-07-10T05:34:42;21.40;99.90
33149;DHT22;19506;51.040;3.856;2022-07-10T05:37:07;21.40;99.90
33149;DHT22;19506;51.040;3.856;2022-07-10T05:39:33;21.30;99.90
33149;DHT22;19506;51.040;3.856;2022-07-10T05:41:59;21.30;99.90
33149;DHT22;19506;51.040;3.856;2022-07-10T05:44:25;21.30;99.90
33149;DHT22;19506;51.040;3.856;2022-07-10T05:46:51;21.20;99.90
33149;DHT22;19506;51.040;3.856;2022-07-10T05:49:16;21.30;99.90
33149;DHT22;19506;51.040;3.856;2022-07-10T05:51:42;21.20;99.90
33149;DHT22;19506;51.040;3.856;2022-07-10T05:54:08;21.20;99.90
33149;DHT22;19506;51.040;3.856;2022-07-10T05:56:34;21.20;99.90
33149;DHT22;19506;51.040;3.856;2022-07-10T05:59:00;21.20;99.90
33149;DHT22;19506;51.040;3.856;2022-07-10T06:01:26;21.20;99.90
33149;DHT22;19506;51.040;3.856;2022-07-10T06:03:52;21.20;99.90
33149;DHT22;19506;51.040;3.856;2022-07-10T06:06:17;21.10;99.90
33149;DHT22;19506;51.040;3.856;2022-07-10T06:08:43;21.20;99.90
33149;DHT22;19506;51.040;3.856;2022-07-10T06:11:10;21.20;99.90
33149;DHT22;19506;51.040;3.856;2022-07-10T06:13:36;21.20;99.90
33149;DHT22;19506;51.040;3.856;2022-07-10T06:16:02;21.20;99.90
33149;DHT22;19506;51.040;3.856;2022-07-10T06:18:29;21.20;99.90
33149;DHT22;19506;51.040;3.856;2022-07-10T06:20:55;21.10;99.90
33149;DHT22;19506;51.040;3.856;2022-07-10T06:23:20;21.00;99.90
33149;DHT22;19506;51.040;3.856;2022-07-10T06:25:46;21.00;99.90
33149;DHT22;19506;51.040;3.856;2022-07-10T06:28:14;20.80;99.90
33149;DHT22;19506;51.040;3.856;2022-07-10T06:30:39;20.90;99.90
33149;DHT22;19506;51.040;3.856;2022-07-10T06:33:05;20.90;99.90
33149;DHT22;19506;51.040;3.856;2022-07-10T06:35:30;20.80;99.90
33149;DHT22;19506;51.040;3.856;2022-07-10T06:37:56;20.80;99.90
33149;DHT22;19506;51.040;3.856;2022-07-10T06:40:22;20.90;99.90
33149;DHT22;19506;51.040;3.856;2022-07-10T06:42:48;20.90;99.90
33149;DHT22;19506;51.040;3.856;2022-07-10T06:45:14;20.80;99.90
33149;DHT22;19506;51.040;3.856;2022-07-10T06:47:40;20.80;99.90
33149;DHT22;19506;51.040;3.856;2022-07-10T06:50:22;20.80;99.90
33149;DHT22;19506;51.040;3.856;2022-07-10T06:52:49;20.90;99.90
33149;DHT22;19506;51.040;3.856;2022-07-10T06:55:15;20.90;99.90
33149;DHT22;19506;51.040;3.856;2022-07-10T06:57:41;21.00;99.90
33149;DHT22;19506;51.040;3.856;2022-07-10T07:00:07;21.00;99.90
33149;DHT22;19506;51.040;3.856;2022-07-10T07:02:35;21.00;99.90
33149;DHT22;19506;51.040;3.856;2022-07-10T07:05:00;21.00;99.90
33149;DHT22;19506;51.040;3.856;2022-07-10T07:07:26;21.00;99.90
33149;DHT22;19506;51.040;3.856;2022-07-10T07:09:52;21.00;99.90
33149;DHT22;19506;51.040;3.856;2022-07-10T07:12:17;21.00;99.90
33149;DHT22;19506;51.040;3.856;2022-07-10T07:14:44;21.10;99.90
33149;DHT22;19506;51.040;3.856;2022-07-10T07:17:09;21.00;99.90
33149;DHT22;19506;51.040;3.856;2022-07-10T07:19:37;21.00;99.90
33149;DHT22;19506;51.040;3.856;2022-07-10T07:22:23;20.90;99.90
33149;DHT22;19506;51.040;3.856;2022-07-10T07:25:09;21.00;99.90
33149;DHT22;19506;51.040;3.856;2022-07-10T07:27:36;21.00;99.90
33149;DHT22;19506;51.040;3.856;2022-07-10T07:30:06;21.10;99.90
33149;DHT22;19506;51.040;3.856;2022-07-10T07:32:33;21.20;99.90
33149;DHT22;19506;51.040;3.856;2022-07-10T07:34:59;21.20;99.90
33149;DHT22;19506;51.040;3.856;2022-07-10T07:40:02;21.30;99.90
33149;DHT22;19506;51.040;3.856;2022-07-10T07:42:27;21.30;99.90
33149;DHT22;19506;51.040;3.856;2022-07-10T07:44:53;21.30;99.90
33149;DHT22;19506;51.040;3.856;2022-07-10T07:47:19;21.40;99.90
33149;DHT22;19506;51.040;3.856;2022-07-10T07:49:45;21.40;99.90
33149;DHT22;19506;51.040;3.856;2022-07-10T07:52:10;21.30;99.90
33149;DHT22;19506;51.040;3.856;2022-07-10T07:54:36;21.30;99.90
33149;DHT22;19506;51.040;3.856;2022-07-10T07:57:02;21.30;99.90
33149;DHT22;19506;51.040;3.856;2022-07-10T07:59:27;21.30;99.90
33149;DHT22;19506;51.040;3.856;2022-07-10T08:01:53;21.30;99.90
33149;DHT22;19506;51.040;3.856;2022-07-10T08:04:19;21.30;99.90
33149;DHT22;19506;51.040;3.856;2022-07-10T08:06:44;21.40;99.90
33149;DHT22;19506;51.040;3.856;2022-07-10T08:09:10;21.50;99.90
33149;DHT22;19506;51.040;3.856;2022-07-10T08:11:36;21.40;99.90
33149;DHT22;19506;51.040;3.856;2022-07-10T08:14:01;21.40;99.90
33149;DHT22;19506;51.040;3.856;2022-07-10T08:16:27;21.30;99.90
33149;DHT22;19506;51.040;3.856;2022-07-10T08:18:53;21.40;99.90
33149;DHT22;19506;51.040;3.856;2022-07-10T08:21:18;21.40;99.90
33149;DHT22;19506;51.040;3.856;2022-07-10T08:23:44;21.40;99.90
33149;DHT22;19506;51.040;3.856;2022-07-10T08:26:10;21.40;99.90
33149;DHT22;19506;51.040;3.856;2022-07-10T08:28:35;21.40;99.90
33149;DHT22;19506;51.040;3.856;2022-07-10T08:31:01;21.50;99.90
33149;DHT22;19506;51.040;3.856;2022-07-10T08:33:27;21.50;99.90
33149;DHT22;19506;51.040;3.856;2022-07-10T08:35:53;21.50;99.90
33149;DHT22;19506;51.040;3.856;2022-07-10T08:38:24;21.50;99.90
33149;DHT22;19506;51.040;3.856;2022-07-10T08:40:50;21.50;99.90
33149;DHT22;19506;51.040;3.856;2022-07-10T08:43:16;21.60;99.90
33149;DHT22;19506;51.040;3.856;2022-07-10T08:45:42;21.60;99.90
33149;DHT22;19506;51.040;3.856;2022-07-10T08:48:09;21.60;99.90
33149;DHT22;19506;51.040;3.856;2022-07-10T08:50:40;21.60;99.90
33149;DHT22;19506;51.040;3.856;2022-07-10T08:53:13;21.70;99.90
33149;DHT22;19506;51.040;3.856;2022-07-10T08:55:39;21.70;99.90
33149;DHT22;19506;51.040;3.856;2022-07-10T08:58:05;21.70;99.90
33149;DHT22;19506;51.040;3.856;2022-07-10T09:00:33;21.70;99.90
33149;DHT22;19506;51.040;3.856;2022-07-10T09:02:58;21.80;99.90
33149;DHT22;19506;51.040;3.856;2022-07-10T09:05:25;21.80;99.90
33149;DHT22;19506;51.040;3.856;2022-07-10T09:07:51;21.80;99.90
33149;DHT22;19506;51.040;3.856;2022-07-10T09:10:20;21.90;99.60
33149;DHT22;19506;51.040;3.856;2022-07-10T09:12:54;21.90;99.90
33149;DHT22;19506;51.040;3.856;2022-07-10T09:15:22;21.90;99.90
33149;DHT22;19506;51.040;3.856;2022-07-10T09:17:56;21.90;99.90
33149;DHT22;19506;51.040;3.856;2022-07-10T09:23:17;21.90;99.90
33149;DHT22;19506;51.040;3.856;2022-07-10T09:25:44;21.90;99.90
33149;DHT22;19506;51.040;3.856;2022-07-10T09:28:09;22.00;99.90
33149;DHT22;19506;51.040;3.856;2022-07-10T09:30:37;21.90;99.90
33149;DHT22;19506;51.040;3.856;2022-07-10T09:33:22;22.00;99.90
33149;DHT22;19506;51.040;3.856;2022-07-10T09:36:04;22.00;99.90
33149;DHT22;19506;51.040;3.856;2022-07-10T09:41:18;22.00;99.90
33149;DHT22;19506;51.040;3.856;2022-07-10T09:43:54;22.00;99.90
33149;DHT22;19506;51.040;3.856;2022-07-10T09:46:22;22.00;99.90
33149;DHT22;19506;51.040;3.856;2022-07-10T09:51:34;22.00;99.90
33149;DHT22;19506;51.040;3.856;2022-07-10T09:54:01;22.00;99.90
33149;DHT22;19506;51.040;3.856;2022-07-10T09:56:32;22.10;99.90
33149;DHT22;19506;51.040;3.856;2022-07-10T09:58:59;22.10;99.90
33149;DHT22;19506;51.040;3.856;2022-07-10T10:01:27;22.20;99.80
33149;DHT22;19506;51.040;3.856;2022-07-10T10:03:53;22.20;99.80
33149;DHT22;19506;51.040;3.856;2022-07-10T10:06:26;22.20;99.70
33149;DHT22;19506;51.040;3.856;2022-07-10T10:09:08;22.20;99.70
33149;DHT22;19506;51.040;3.856;2022-07-10T10:11:40;22.20;99.60
33149;DHT22;19506;51.040;3.856;2022-07-10T10:14:07;22.30;99.50
33149;DHT22;19506;51.040;3.856;2022-07-10T10:16:34;22.30;99.30
33149;DHT22;19506;51.040;3.856;2022-07-10T10:19:02;22.40;99.00
33149;DHT22;19506;51.040;3.856;2022-07-10T10:21:46;22.30;99.00
33149;DHT22;19506;51.040;3.856;2022-07-10T10:24:13;22.20;99.30
33149;DHT22;19506;51.040;3.856;2022-07-10T10:26:40;22.20;99.50
33149;DHT22;19506;51.040;3.856;2022-07-10T10:29:07;22.10;99.60
33149;DHT22;19506;51.040;3.856;2022-07-10T10:31:33;22.20;99.60
33149;DHT22;19506;51.040;3.856;2022-07-10T10:33:59;22.20;99.50
33149;DHT22;19506;51.040;3.856;2022-07-10T10:41:30;22.30;99.20
33149;DHT22;19506;51.040;3.856;2022-07-10T10:49:21;22.40;98.90
33149;DHT22;19506;51.040;3.856;2022-07-10T10:52:10;22.60;98.70
33149;DHT22;19506;51.040;3.856;2022-07-10T10:59:57;22.40;98.80
33149;DHT22;19506;51.040;3.856;2022-07-10T11:02:36;22.40;98.70
33149;DHT22;19506;51.040;3.856;2022-07-10T11:07:56;22.50;98.60
33149;DHT22;19506;51.040;3.856;2022-07-10T11:10:33;22.50;98.70
33149;DHT22;19506;51.040;3.856;2022-07-10T11:13:02;22.30;98.80
33149;DHT22;19506;51.040;3.856;2022-07-10T11:15:29;22.20;99.10
33149;DHT22;19506;51.040;3.856;2022-07-10T11:18:17;22.20;99.20
33149;DHT22;19506;51.040;3.856;2022-07-10T11:20:51;22.10;99.40
33149;DHT22;19506;51.040;3.856;2022-07-10T11:26:09;22.10;99.60
33149;DHT22;19506;51.040;3.856;2022-07-10T11:28:47;22.10;99.50
33149;DHT22;19506;51.040;3.856;2022-07-10T11:31:14;22.10;99.60
33149;DHT22;19506;51.040;3.856;2022-07-10T11:33:42;22.10;99.60
33149;DHT22;19506;51.040;3.856;2022-07-10T11:36:13;22.10;99.70
33149;DHT22;19506;51.040;3.856;2022-07-10T11:38:41;22.00;99.70
33149;DHT22;19506;51.040;3.856;2022-07-10T11:41:15;22.10;99.70
33149;DHT22;19506;51.040;3.856;2022-07-10T11:43:55;22.20;99.60
33149;DHT22;19506;51.040;3.856;2022-07-10T11:46:23;22.20;99.50
33149;DHT22;19506;51.040;3.856;2022-07-10T11:48:50;22.10;99.50
33149;DHT22;19506;51.040;3.856;2022-07-10T11:51:27;22.10;99.60
33149;DHT22;19506;51.040;3.856;2022-07-10T11:54:08;22.10;99.60
33149;DHT22;19506;51.040;3.856;2022-07-10T11:56:37;22.10;99.70
33149;DHT22;19506;51.040;3.856;2022-07-10T11:59:06;22.10;99.80
33149;DHT22;19506;51.040;3.856;2022-07-10T12:01:33;22.10;99.60
33149;DHT22;19506;51.040;3.856;2022-07-10T12:04:04;22.10;99.60
33149;DHT22;19506;51.040;3.856;2022-07-10T12:06:31;22.10;99.60
33149;DHT22;19506;51.040;3.856;2022-07-10T12:09:06;22.10;99.70
33149;DHT22;19506;51.040;3.856;2022-07-10T12:11:32;22.00;99.80
33149;DHT22;19506;51.040;3.856;2022-07-10T12:14:20;22.00;99.90
33149;DHT22;19506;51.040;3.856;2022-07-10T12:16:50;22.00;99.90
33149;DHT22;19506;51.040;3.856;2022-07-10T12:19:19;22.10;99.90
33149;DHT22;19506;51.040;3.856;2022-07-10T12:21:46;22.10;99.80
33149;DHT22;19506;51.040;3.856;2022-07-10T12:24:15;22.10;99.80
33149;DHT22;19506;51.040;3.856;2022-07-10T12:26:42;22.10;99.70
33149;DHT22;19506;51.040;3.856;2022-07-10T12:29:25;22.10;99.90
33149;DHT22;19506;51.040;3.856;2022-07-10T12:32:02;22.10;99.80
33149;DHT22;19506;51.040;3.856;2022-07-10T12:34:41;22.10;99.70
33149;DHT22;19506;51.040;3.856;2022-07-10T12:37:12;22.20;99.60
33149;DHT22;19506;51.040;3.856;2022-07-10T12:39:49;22.10;99.60
33149;DHT22;19506;51.040;3.856;2022-07-10T12:42:32;22.10;99.80
33149;DHT22;19506;51.040;3.856;2022-07-10T12:45:10;22.10;99.90
33149;DHT22;19506;51.040;3.856;2022-07-10T12:47:47;22.10;99.90
33149;DHT22;19506;51.040;3.856;2022-07-10T12:50:13;22.10;99.90
33149;DHT22;19506;51.040;3.856;2022-07-10T12:52:40;22.10;99.90
33149;DHT22;19506;51.040;3.856;2022-07-10T12:55:18;22.10;99.90
33149;DHT22;19506;51.040;3.856;2022-07-10T13:03:01;22.10;99.90
33149;DHT22;19506;51.040;3.856;2022-07-10T13:05:39;22.10;99.90
33149;DHT22;19506;51.040;3.856;2022-07-10T13:10:55;22.10;99.90
33149;DHT22;19506;51.040;3.856;2022-07-10T13:13:22;22.10;99.90
33149;DHT22;19506;51.040;3.856;2022-07-10T13:15:48;22.20;99.90
33149;DHT22;19506;51.040;3.856;2022-07-10T13:18:25;22.20;99.90
33149;DHT22;19506;51.040;3.856;2022-07-10T13:20:53;22.10;99.90
33149;DHT22;19506;51.040;3.856;2022-07-10T13:23:19;22.10;99.90
33149;DHT22;19506;51.040;3.856;2022-07-10T13:25:48;22.10;99.90
33149;DHT22;19506;51.040;3.856;2022-07-10T13:28:14;22.20;99.90
33149;DHT22;19506;51.040;3.856;2022-07-10T13:30:42;22.20;99.90
33149;DHT22;19506;51.040;3.856;2022-07-10T13:33:08;22.20;99.90
33149;DHT22;19506;51.040;3.856;2022-07-10T13:35:34;22.20;99.90
33149;DHT22;19506;51.040;3.856;2022-07-10T13:38:01;22.20;99.90
33149;DHT22;19506;51.040;3.856;2022-07-10T13:40:29;22.20;99.90
33149;DHT22;19506;51.040;3.856;2022-07-10T13:42:56;22.20;99.90
33149;DHT22;19506;51.040;3.856;2022-07-10T13:45:22;22.30;99.90
33149;DHT22;19506;51.040;3.856;2022-07-10T13:47:50;22.20;99.90
33149;DHT22;19506;51.040;3.856;2022-07-10T13:50:15;22.30;99.90
33149;DHT22;19506;51.040;3.856;2022-07-10T13:52:41;22.30;99.80
33149;DHT22;19506;51.040;3.856;2022-07-10T13:55:07;22.30;99.90
33149;DHT22;19506;51.040;3.856;2022-07-10T13:57:33;22.30;99.90
33149;DHT22;19506;51.040;3.856;2022-07-10T13:59:59;22.30;99.90
33149;DHT22;19506;51.040;3.856;2022-07-10T14:02:25;22.30;99.90
33149;DHT22;19506;51.040;3.856;2022-07-10T14:04:51;22.30;99.90
33149;DHT22;19506;51.040;3.856;2022-07-10T14:07:17;22.40;99.80
33149;DHT22;19506;51.040;3.856;2022-07-10T14:09:42;22.40;99.80
33149;DHT22;19506;51.040;3.856;2022-07-10T14:12:09;22.40;99.80
33149;DHT22;19506;51.040;3.856;2022-07-10T14:14:34;22.50;99.70
33149;DHT22;19506;51.040;3.856;2022-07-10T14:17:00;22.50;99.40
33149;DHT22;19506;51.040;3.856;2022-07-10T14:19:26;22.60;99.40
33149;DHT22;19506;51.040;3.856;2022-07-10T14:21:51;22.50;99.30
33149;DHT22;19506;51.040;3.856;2022-07-10T14:24:17;22.50;99.40
33149;DHT22;19506;51.040;3.856;2022-07-10T14:26:43;22.50;99.30
33149;DHT22;19506;51.040;3.856;2022-07-10T14:29:08;22.50;99.30
33149;DHT22;19506;51.040;3.856;2022-07-10T14:31:35;22.40;99.40
33149;DHT22;19506;51.040;3.856;2022-07-10T14:34:00;22.40;99.40
33149;DHT22;19506;51.040;3.856;2022-07-10T14:36:26;22.40;99.50
33149;DHT22;19506;51.040;3.856;2022-07-10T14:39:01;22.40;99.30
33149;DHT22;19506;51.040;3.856;2022-07-10T14:41:27;22.40;99.50
33149;DHT22;19506;51.040;3.856;2022-07-10T14:43:54;22.30;99.60
33149;DHT22;19506;51.040;3.856;2022-07-10T14:46:20;22.30;99.70
33149;DHT22;19506;51.040;3.856;2022-07-10T14:48:45;22.30;99.80
33149;DHT22;19506;51.040;3.856;2022-07-10T14:51:11;22.30;99.80
33149;DHT22;19506;51.040;3.856;2022-07-10T14:53:37;22.40;99.80
33149;DHT22;19506;51.040;3.856;2022-07-10T14:56:04;22.40;99.80
33149;DHT22;19506;51.040;3.856;2022-07-10T14:58:34;22.40;99.80
33149;DHT22;19506;51.040;3.856;2022-07-10T15:01:00;22.40;99.80
33149;DHT22;19506;51.040;3.856;2022-07-10T15:03:26;22.30;99.80
33149;DHT22;19506;51.040;3.856;2022-07-10T15:05:52;22.40;99.90
33149;DHT22;19506;51.040;3.856;2022-07-10T15:08:25;22.40;99.60
33149;DHT22;19506;51.040;3.856;2022-07-10T15:10:51;22.50;99.30
33149;DHT22;19506;51.040;3.856;2022-07-10T15:13:17;22.50;99.40
33149;DHT22;19506;51.040;3.856;2022-07-10T15:15:44;22.50;99.50
33149;DHT22;19506;51.040;3.856;2022-07-10T15:18:10;22.40;99.60
33149;DHT22;19506;51.040;3.856;2022-07-10T15:20:36;22.40;99.70
33149;DHT22;19506;51.040;3.856;2022-07-10T15:23:03;22.30;99.70
33149;DHT22;19506;51.040;3.856;2022-07-10T15:25:29;22.40;99.80
33149;DHT22;19506;51.040;3.856;2022-07-10T15:27:55;22.40;99.80
33149;DHT22;19506;51.040;3.856;2022-07-10T15:30:21;22.40;99.90
33149;DHT22;19506;51.040;3.856;2022-07-10T15:32:47;22.40;99.90
33149;DHT22;19506;51.040;3.856;2022-07-10T15:35:13;22.30;99.90
33149;DHT22;19506;51.040;3.856;2022-07-10T15:37:39;22.40;99.90
33149;DHT22;19506;51.040;3.856;2022-07-10T15:40:05;22.40;99.80
33149;DHT22;19506;51.040;3.856;2022-07-10T15:42:31;22.40;99.60
33149;DHT22;19506;51.040;3.856;2022-07-10T15:44:57;22.60;99.20
33149;DHT22;19506;51.040;3.856;2022-07-10T15:47:23;22.50;99.10
33149;DHT22;19506;51.040;3.856;2022-07-10T15:49:49;22.50;99.30
33149;DHT22;19506;51.040;3.856;2022-07-10T15:52:15;22.50;99.30
33149;DHT22;19506;51.040;3.856;2022-07-10T15:54:40;22.40;99.40
33149;DHT22;19506;51.040;3.856;2022-07-10T15:57:07;22.50;99.50
33149;DHT22;19506;51.040;3.856;2022-07-10T15:59:33;22.40;99.60
33149;DHT22;19506;51.040;3.856;2022-07-10T16:02:00;22.40;99.60
33149;DHT22;19506;51.040;3.856;2022-07-10T16:04:26;22.40;99.60
33149;DHT22;19506;51.040;3.856;2022-07-10T16:06:52;22.50;99.50
33149;DHT22;19506;51.040;3.856;2022-07-10T16:09:18;22.50;99.30
33149;DHT22;19506;51.040;3.856;2022-07-10T16:11:44;22.50;99.30
33149;DHT22;19506;51.040;3.856;2022-07-10T16:14:10;22.70;98.80